createdAt,value
2017-06-27T00:01:56.913Z,3.43
2017-06-27T00:04:24.387Z,2.47
2017-06-27T00:06:52.661Z,3.90
2017-06-27T00:09:20.901Z,4.00
2017-06-27T00:11:48.385Z,3.60
2017-06-27T00:14:15.865Z,3.50
2017-06-27T00:16:44.111Z,3.50
2017-06-27T00:19:11.579Z,3.33
2017-06-27T00:21:39.081Z,2.67
2017-06-27T00:24:06.561Z,2.70
2017-06-27T00:26:34.038Z,2.83
2017-06-27T00:29:01.527Z,3.03
2017-06-27T00:31:29.754Z,2.90
2017-06-27T00:33:57.242Z,3.20
2017-06-27T00:36:24.831Z,7.20
2017-06-27T00:38:52.318Z,3.33
2017-06-27T00:41:19.797Z,3.07
2017-06-27T00:43:47.281Z,3.10
2017-06-27T00:46:15.524Z,3.07
2017-06-27T00:48:43.009Z,2.90
2017-06-27T00:51:10.502Z,4.07
2017-06-27T00:53:38.022Z,4.00
2017-06-27T00:56:05.506Z,3.27
2017-06-27T00:58:33.772Z,3.57
2017-06-27T01:01:02.027Z,5.40
2017-06-27T01:03:29.513Z,3.30
2017-06-27T01:05:58.181Z,2.90
2017-06-27T01:08:25.650Z,3.40
2017-06-27T01:10:53.934Z,3.00
2017-06-27T01:13:21.430Z,3.50
2017-06-27T01:15:48.914Z,3.53
2017-06-27T01:18:16.403Z,7.17
2017-06-27T01:20:44.666Z,6.03
2017-06-27T01:23:12.138Z,7.80
2017-06-27T01:25:40.373Z,4.23
2017-06-27T01:28:07.864Z,3.23
2017-06-27T01:30:36.123Z,6.03
2017-06-27T01:33:03.609Z,5.07
2017-06-27T01:35:31.850Z,3.70
2017-06-27T01:37:59.361Z,4.50
2017-06-27T01:40:26.838Z,3.97
2017-06-27T01:42:55.142Z,4.00
2017-06-27T01:45:22.631Z,5.70
2017-06-27T01:47:50.882Z,4.13
2017-06-27T01:50:18.353Z,6.13
2017-06-27T01:52:53.308Z,3.80
2017-06-27T01:55:20.781Z,4.90
2017-06-27T01:57:48.260Z,5.10
2017-06-27T02:00:15.751Z,3.47
2017-06-27T02:02:43.238Z,3.50
2017-06-27T02:05:10.739Z,3.97
2017-06-27T02:07:38.210Z,3.40
2017-06-27T02:10:05.697Z,3.00
2017-06-27T02:12:33.932Z,3.00
2017-06-27T02:15:01.410Z,3.10
2017-06-27T02:17:28.877Z,3.53
2017-06-27T02:19:56.377Z,3.63
2017-06-27T02:22:23.863Z,3.13
2017-06-27T02:24:51.328Z,5.07
2017-06-27T02:27:18.832Z,2.87
2017-06-27T02:29:54.786Z,3.50
2017-06-27T02:32:23.017Z,3.80
2017-06-27T02:34:50.493Z,5.97
2017-06-27T02:37:17.971Z,3.00
2017-06-27T02:39:46.215Z,5.97
2017-06-27T02:42:13.696Z,6.67
2017-06-27T02:44:41.997Z,3.40
2017-06-27T02:47:09.478Z,3.70
2017-06-27T02:49:36.970Z,3.70
2017-06-27T02:52:04.457Z,3.33
2017-06-27T02:54:32.694Z,3.40
2017-06-27T02:57:00.182Z,4.30
2017-06-27T02:59:28.433Z,4.33
2017-06-27T03:01:55.929Z,4.50
2017-06-27T03:04:23.407Z,3.80
2017-06-27T03:06:50.885Z,6.20
2017-06-27T03:09:18.371Z,5.40
2017-06-27T03:11:45.843Z,5.00
2017-06-27T03:14:14.093Z,6.27
2017-06-27T03:16:41.562Z,5.63
2017-06-27T03:19:09.066Z,5.40
2017-06-27T03:21:36.559Z,5.63
2017-06-27T03:24:04.058Z,5.60
2017-06-27T03:26:32.296Z,4.70
2017-06-27T03:28:59.789Z,5.47
2017-06-27T03:31:28.031Z,5.83
2017-06-27T03:33:55.558Z,7.23
2017-06-27T03:36:23.031Z,6.60
2017-06-27T03:38:50.504Z,5.80
2017-06-27T03:41:17.983Z,6.00
2017-06-27T03:43:45.470Z,6.30
2017-06-27T03:46:12.952Z,6.20
2017-06-27T03:48:40.473Z,6.50
2017-06-27T03:51:08.714Z,6.77
2017-06-27T03:53:36.185Z,7.00
2017-06-27T03:56:03.672Z,6.07
2017-06-27T03:58:31.906Z,5.80
2017-06-27T04:00:59.385Z,5.90
2017-06-27T04:03:27.640Z,5.63
2017-06-27T04:05:55.148Z,5.77
2017-06-27T04:08:22.642Z,6.03
2017-06-27T04:10:50.114Z,6.10
2017-06-27T04:13:17.625Z,7.13
2017-06-27T04:15:45.094Z,5.57
2017-06-27T04:18:12.601Z,4.67
2017-06-27T04:20:40.073Z,5.50
2017-06-27T04:23:08.314Z,7.03
2017-06-27T04:25:35.801Z,5.50
2017-06-27T04:28:04.059Z,12.93
2017-06-27T04:30:31.614Z,4.87
2017-06-27T04:32:59.089Z,4.50
2017-06-27T04:35:26.573Z,5.00
2017-06-27T04:37:54.061Z,4.83
2017-06-27T04:40:21.534Z,6.23
2017-06-27T04:42:49.042Z,4.53
2017-06-27T04:45:16.534Z,5.37
2017-06-27T04:47:44.010Z,4.90
2017-06-27T04:50:11.604Z,4.90
2017-06-27T04:52:39.941Z,4.80
2017-06-27T04:55:07.478Z,5.07
2017-06-27T04:57:34.962Z,4.90
2017-06-27T05:00:02.441Z,5.87
2017-06-27T05:02:29.956Z,4.47
2017-06-27T05:04:57.424Z,7.33
2017-06-27T05:07:24.920Z,4.53
2017-06-27T05:09:52.424Z,6.60
2017-06-27T05:12:19.955Z,8.07
2017-06-27T05:14:48.215Z,8.30
2017-06-27T05:17:15.799Z,6.63
2017-06-27T05:19:44.032Z,6.93
2017-06-27T05:22:11.531Z,6.90
2017-06-27T05:24:39.768Z,5.93
2017-06-27T05:27:07.261Z,5.83
2017-06-27T05:29:35.509Z,5.50
2017-06-27T05:32:02.988Z,5.20
2017-06-27T05:34:31.255Z,6.17
2017-06-27T05:36:59.501Z,8.10
2017-06-27T05:39:26.987Z,5.60
2017-06-27T05:41:54.476Z,8.17
2017-06-27T05:44:21.948Z,5.03
2017-06-27T05:46:49.432Z,7.07
2017-06-27T05:49:16.961Z,5.50
2017-06-27T05:51:44.434Z,9.00
2017-06-27T05:54:11.914Z,5.60
2017-06-27T05:56:39.393Z,4.90
2017-06-27T05:59:13.207Z,6.27
2017-06-27T06:01:41.470Z,4.77
2017-06-27T06:04:08.947Z,5.50
2017-06-27T06:06:37.202Z,4.50
2017-06-27T06:09:04.676Z,4.67
2017-06-27T06:11:32.930Z,5.80
2017-06-27T06:14:00.420Z,4.90
2017-06-27T06:16:28.690Z,7.10
2017-06-27T06:18:56.172Z,3.70
2017-06-27T06:21:23.701Z,3.70
2017-06-27T06:23:51.942Z,7.83
2017-06-27T06:26:19.421Z,7.27
2017-06-27T06:28:46.929Z,6.57
2017-06-27T06:31:14.401Z,3.57
2017-06-27T06:33:41.891Z,4.50
2017-06-27T06:36:09.357Z,4.43
2017-06-27T06:38:36.860Z,3.00
2017-06-27T06:41:04.341Z,4.37
2017-06-27T06:43:31.851Z,3.50
2017-06-27T06:46:00.093Z,3.03
2017-06-27T06:48:27.611Z,3.27
2017-06-27T06:50:55.081Z,3.67
2017-06-27T06:53:22.558Z,8.03
2017-06-27T06:55:50.051Z,3.63
2017-06-27T06:58:18.307Z,3.70
2017-06-27T07:00:45.802Z,2.97
2017-06-27T07:03:13.282Z,6.03
2017-06-27T07:05:40.775Z,3.20
2017-06-27T07:08:08.260Z,3.50
2017-06-27T07:10:36.510Z,3.10
2017-06-27T07:13:03.986Z,3.30
2017-06-27T07:15:32.247Z,4.23
2017-06-27T07:17:59.726Z,4.83
2017-06-27T07:20:28.028Z,3.17
2017-06-27T07:22:55.505Z,3.43
2017-06-27T07:25:22.981Z,2.93
2017-06-27T07:27:50.477Z,3.95
2017-06-27T07:30:17.971Z,4.20
2017-06-27T07:32:45.465Z,3.03
2017-06-27T07:35:12.962Z,2.20
2017-06-27T07:37:40.478Z,2.50
2017-06-27T07:40:07.959Z,2.70
2017-06-27T07:42:36.229Z,3.03
2017-06-27T07:45:04.492Z,2.40
2017-06-27T07:47:31.982Z,3.47
2017-06-27T07:50:00.221Z,3.30
2017-06-27T07:52:28.428Z,10.30
2017-06-27T07:54:55.934Z,5.43
2017-06-27T07:57:23.408Z,2.60
2017-06-27T07:59:50.898Z,2.77
2017-06-27T08:02:19.150Z,2.43
2017-06-27T08:04:46.653Z,2.60
2017-06-27T08:07:14.130Z,3.43
2017-06-27T08:09:41.645Z,3.30
2017-06-27T08:12:09.888Z,2.13
2017-06-27T08:14:37.399Z,2.03
2017-06-27T08:17:10.599Z,3.67
2017-06-27T08:19:38.098Z,3.10
2017-06-27T08:22:05.588Z,2.57
2017-06-27T08:24:33.871Z,2.37
2017-06-27T08:27:02.110Z,2.10
2017-06-27T08:29:29.596Z,2.47
2017-06-27T08:31:57.847Z,2.53
2017-06-27T08:34:25.324Z,2.30
2017-06-27T08:36:52.817Z,3.27
2017-06-27T08:39:20.297Z,3.90
2017-06-27T08:41:47.797Z,2.70
2017-06-27T08:44:15.273Z,3.17
2017-06-27T08:46:43.530Z,3.17
2017-06-27T08:49:11.773Z,3.00
2017-06-27T08:51:39.301Z,3.47
2017-06-27T08:54:06.783Z,2.00
2017-06-27T08:56:34.250Z,2.57
2017-06-27T08:59:01.738Z,2.63
2017-06-27T09:01:29.235Z,2.10
2017-06-27T09:03:56.713Z,2.90
2017-06-27T09:06:24.190Z,2.27
2017-06-27T09:08:51.684Z,2.47
2017-06-27T09:11:19.921Z,3.73
2017-06-27T09:13:47.421Z,4.60
2017-06-27T09:16:15.669Z,2.47
2017-06-27T09:18:43.151Z,3.33
2017-06-27T09:21:11.395Z,2.00
2017-06-27T09:23:38.881Z,2.90
2017-06-27T09:26:07.142Z,2.07
2017-06-27T09:28:34.617Z,3.73
2017-06-27T09:31:02.171Z,2.93
2017-06-27T09:33:30.415Z,2.70
2017-06-27T09:35:58.350Z,2.57
2017-06-27T09:38:25.818Z,2.93
2017-06-27T09:40:53.317Z,2.40
2017-06-27T09:43:20.784Z,2.50
2017-06-27T09:45:48.274Z,7.17
2017-06-27T09:48:15.756Z,2.20
2017-06-27T09:50:43.259Z,2.67
2017-06-27T09:53:11.518Z,2.60
2017-06-27T09:55:38.990Z,2.20
2017-06-27T09:58:07.245Z,2.83
2017-06-27T10:00:38.478Z,2.20
2017-06-27T10:03:05.966Z,2.10
2017-06-27T10:05:33.446Z,2.30
2017-06-27T10:08:00.944Z,2.73
2017-06-27T10:10:28.431Z,3.20
2017-06-27T10:12:55.917Z,2.43
2017-06-27T10:15:24.165Z,2.67
2017-06-27T10:17:51.664Z,2.23
2017-06-27T10:20:19.151Z,2.60
2017-06-27T10:22:46.653Z,4.63
2017-06-27T10:25:14.940Z,2.67
2017-06-27T10:27:43.195Z,2.90
2017-06-27T10:30:10.687Z,2.67
2017-06-27T10:32:38.158Z,2.93
2017-06-27T10:35:05.667Z,2.50
2017-06-27T10:37:33.140Z,2.77
2017-06-27T10:40:01.387Z,2.23
2017-06-27T10:42:28.885Z,2.97
2017-06-27T10:44:57.146Z,2.50
2017-06-27T10:47:25.383Z,2.77
2017-06-27T10:49:52.890Z,4.70
2017-06-27T10:52:21.157Z,3.70
2017-06-27T10:54:49.429Z,2.43
2017-06-27T10:57:17.670Z,2.40
2017-06-27T10:59:45.148Z,5.07
2017-06-27T11:02:12.667Z,2.23
2017-06-27T11:04:40.145Z,2.20
2017-06-27T11:07:07.641Z,3.03
2017-06-27T11:09:35.899Z,2.50
2017-06-27T11:12:03.398Z,2.63
2017-06-27T11:14:30.888Z,4.57
2017-06-27T11:16:58.372Z,2.80
2017-06-27T11:19:25.858Z,2.37
2017-06-27T11:21:53.333Z,4.30
2017-06-27T11:24:20.818Z,3.13
2017-06-27T11:26:48.293Z,2.67
2017-06-27T11:29:15.890Z,3.20
2017-06-27T11:31:44.205Z,2.70
2017-06-27T11:34:11.690Z,3.10
2017-06-27T11:36:39.169Z,2.43
2017-06-27T11:39:07.436Z,2.87
2017-06-27T11:41:34.907Z,2.63
2017-06-27T11:44:03.163Z,3.10
2017-06-27T11:46:30.650Z,3.20
2017-06-27T11:48:58.941Z,2.70
2017-06-27T11:51:26.438Z,7.30
2017-06-27T11:53:53.931Z,2.70
2017-06-27T11:56:22.178Z,3.10
2017-06-27T11:58:49.652Z,3.20
2017-06-27T12:01:29.071Z,3.00
2017-06-27T12:04:08.621Z,2.60
2017-06-27T12:06:36.100Z,3.73
2017-06-27T12:09:16.174Z,2.90
2017-06-27T12:11:43.659Z,3.17
2017-06-27T12:14:11.153Z,3.37
2017-06-27T12:16:38.640Z,3.63
2017-06-27T12:19:06.122Z,3.80
2017-06-27T12:21:33.624Z,3.53
2017-06-27T12:24:01.108Z,3.00
2017-06-27T12:26:29.361Z,5.23
2017-06-27T12:28:56.845Z,3.33
2017-06-27T12:31:25.117Z,3.00
2017-06-27T12:33:53.371Z,3.50
2017-06-27T12:36:20.855Z,3.40
2017-06-27T12:38:49.125Z,3.53
2017-06-27T12:41:17.402Z,3.60
2017-06-27T12:43:45.716Z,4.20
2017-06-27T12:46:13.197Z,4.00
2017-06-27T12:48:40.687Z,3.83
2017-06-27T12:51:08.958Z,4.73
2017-06-27T12:53:36.444Z,4.70
2017-06-27T12:56:03.919Z,3.60
2017-06-27T12:58:31.425Z,3.27
2017-06-27T13:00:58.920Z,3.33
2017-06-27T13:03:26.410Z,3.63
2017-06-27T13:05:53.894Z,4.13
2017-06-27T13:08:21.369Z,3.57
2017-06-27T13:10:49.621Z,4.17
2017-06-27T13:13:17.093Z,7.10
2017-06-27T13:15:44.585Z,4.63
2017-06-27T13:18:12.121Z,5.33
2017-06-27T13:20:40.385Z,4.83
2017-06-27T13:23:07.871Z,3.87
2017-06-27T13:25:35.374Z,3.90
2017-06-27T13:28:09.319Z,3.33
2017-06-27T13:30:36.806Z,4.60
2017-06-27T13:33:04.285Z,3.77
2017-06-27T13:35:31.753Z,9.77
2017-06-27T13:37:59.246Z,4.73
2017-06-27T13:40:26.743Z,4.00
2017-06-27T13:42:54.236Z,4.47
2017-06-27T13:45:21.733Z,5.50
2017-06-27T13:47:49.982Z,3.80
2017-06-27T13:50:17.472Z,6.67
2017-06-27T13:52:45.738Z,3.67
2017-06-27T13:55:13.991Z,4.20
2017-06-27T13:57:41.489Z,4.30
2017-06-27T14:00:08.968Z,4.00
2017-06-27T14:02:36.440Z,3.63
2017-06-27T14:05:03.968Z,4.80
2017-06-27T14:07:31.449Z,4.30
2017-06-27T14:09:58.930Z,3.93
2017-06-27T14:12:26.408Z,3.57
2017-06-27T14:14:53.905Z,7.03
2017-06-27T14:17:21.376Z,4.93
2017-06-27T14:19:48.881Z,5.43
2017-06-27T14:22:16.367Z,6.97
2017-06-27T14:24:43.874Z,10.40
2017-06-27T14:27:11.374Z,7.73
2017-06-27T14:29:39.623Z,6.37
2017-06-27T14:32:07.107Z,5.60
2017-06-27T14:34:35.359Z,3.23
2017-06-27T14:37:02.861Z,3.47
2017-06-27T14:39:30.340Z,3.87
2017-06-27T14:41:57.829Z,4.30
2017-06-27T14:44:25.329Z,5.00
2017-06-27T14:46:52.972Z,5.57
2017-06-27T14:49:21.216Z,6.00
2017-06-27T14:51:48.707Z,5.40
2017-06-27T14:54:16.964Z,4.10
2017-06-27T14:56:44.442Z,3.83
2017-06-27T14:59:12.706Z,12.33
2017-06-27T15:01:40.181Z,3.93
2017-06-27T15:04:08.451Z,4.10
2017-06-27T15:06:36.699Z,3.93
2017-06-27T15:09:04.228Z,6.20
2017-06-27T15:11:31.703Z,4.13
2017-06-27T15:13:59.207Z,4.10
2017-06-27T15:16:27.457Z,4.30
2017-06-27T15:18:54.962Z,4.77
2017-06-27T15:21:22.436Z,4.40
2017-06-27T15:23:49.915Z,4.07
2017-06-27T15:26:17.410Z,5.47
2017-06-27T15:28:45.663Z,4.23
2017-06-27T15:31:13.158Z,3.83
2017-06-27T15:33:40.632Z,4.77
2017-06-27T15:36:08.121Z,4.10
2017-06-27T15:38:35.599Z,5.00
2017-06-27T15:41:03.077Z,3.90
2017-06-27T15:43:31.318Z,5.27
2017-06-27T15:45:59.654Z,5.10
2017-06-27T15:48:27.129Z,3.87
2017-06-27T15:50:54.606Z,4.80
2017-06-27T15:53:22.108Z,4.40
2017-06-27T15:55:50.355Z,4.13
2017-06-27T15:58:17.835Z,6.97
2017-06-27T16:00:46.079Z,3.80
2017-06-27T16:03:13.676Z,4.03
2017-06-27T16:05:41.935Z,4.10
2017-06-27T16:08:10.191Z,5.07
2017-06-27T16:10:37.681Z,4.60
2017-06-27T16:13:05.970Z,7.20
2017-06-27T16:15:33.446Z,4.13
2017-06-27T16:18:00.935Z,3.70
2017-06-27T16:20:28.418Z,4.10
2017-06-27T16:22:56.662Z,3.80
2017-06-27T16:25:24.153Z,6.00
2017-06-27T16:27:51.655Z,4.13
2017-06-27T16:30:19.163Z,3.90
2017-06-27T16:32:46.657Z,9.20
2017-06-27T16:35:14.183Z,5.33
2017-06-27T16:37:42.434Z,6.37
2017-06-27T16:40:09.929Z,10.60
2017-06-27T16:42:38.171Z,7.40
2017-06-27T16:45:05.646Z,10.57
2017-06-27T16:47:33.127Z,7.23
2017-06-27T16:50:01.382Z,5.23
2017-06-27T16:52:29.648Z,4.50
2017-06-27T16:57:50.357Z,7.60
2017-06-27T17:00:17.843Z,5.27
2017-06-27T17:02:46.102Z,5.10
2017-06-27T17:05:14.505Z,6.83
2017-06-27T17:07:42.768Z,10.03
2017-06-27T17:10:11.014Z,6.97
2017-06-27T17:12:38.489Z,5.33
2017-06-27T17:15:05.964Z,4.83
2017-06-27T17:17:34.257Z,6.43
2017-06-27T17:20:01.751Z,4.60
2017-06-27T17:22:29.232Z,6.70
2017-06-27T17:24:56.734Z,5.17
2017-06-27T17:27:24.217Z,5.07
2017-06-27T17:29:51.719Z,6.63
2017-06-27T17:32:19.236Z,5.60
2017-06-27T17:34:46.733Z,5.50
2017-06-27T17:37:14.210Z,11.30
2017-06-27T17:39:42.478Z,5.47
2017-06-27T17:42:10.719Z,7.17
2017-06-27T17:44:38.218Z,5.80
2017-06-27T17:47:06.470Z,5.50
2017-06-27T17:49:33.993Z,6.83
2017-06-27T17:52:01.520Z,7.10
2017-06-27T17:54:29.009Z,4.53
2017-06-27T17:56:56.503Z,5.00
2017-06-27T17:59:23.989Z,8.60
2017-06-27T18:01:52.253Z,5.00
2017-06-27T18:04:19.719Z,5.27
2017-06-27T18:06:47.219Z,4.73
2017-06-27T18:09:14.703Z,7.77
2017-06-27T18:11:42.230Z,5.73
2017-06-27T18:14:09.713Z,6.17
2017-06-27T18:16:37.207Z,9.90
2017-06-27T18:19:05.445Z,8.33
2017-06-27T18:21:32.921Z,5.23
2017-06-27T18:24:00.410Z,6.17
2017-06-27T18:26:27.889Z,5.77
2017-06-27T18:28:55.385Z,5.73
2017-06-27T18:31:22.874Z,7.40
2017-06-27T18:33:51.132Z,7.20
2017-06-27T18:36:18.615Z,7.40
2017-06-27T18:38:46.874Z,6.10
2017-06-27T18:41:14.354Z,6.13
2017-06-27T18:43:41.902Z,5.70
2017-06-27T18:46:10.163Z,5.73
2017-06-27T18:48:37.645Z,5.57
2017-06-27T18:51:05.169Z,6.37
2017-06-27T18:53:32.671Z,5.70
2017-06-27T18:56:00.162Z,5.93
2017-06-27T18:58:27.639Z,7.73
2017-06-27T19:00:55.129Z,6.33
2017-06-27T19:03:23.383Z,8.70
2017-06-27T19:05:50.954Z,5.77
2017-06-27T19:08:19.193Z,6.70
2017-06-27T19:10:46.779Z,8.93
2017-06-27T19:13:14.327Z,6.97
2017-06-27T19:15:41.865Z,8.13
2017-06-27T19:18:09.413Z,6.20
2017-06-27T19:20:36.957Z,6.07
2017-06-27T19:23:04.453Z,8.83
2017-06-27T19:25:31.944Z,7.10
2017-06-27T19:28:00.186Z,6.97
2017-06-27T19:30:27.688Z,8.13
2017-06-27T19:32:56.048Z,6.63
2017-06-27T19:35:23.603Z,7.53
2017-06-27T19:37:51.174Z,8.40
2017-06-27T19:40:19.491Z,5.40
2017-06-27T19:42:53.592Z,6.17
2017-06-27T19:45:21.100Z,6.57
2017-06-27T19:47:48.597Z,9.03
2017-06-27T19:50:16.077Z,6.47
2017-06-27T19:52:43.554Z,6.70
2017-06-27T19:55:11.074Z,6.47
2017-06-27T19:57:38.563Z,8.23
2017-06-27T20:00:06.042Z,6.47
2017-06-27T20:02:33.530Z,7.37
2017-06-27T20:05:01.783Z,14.23
2017-06-27T20:07:29.277Z,6.43
2017-06-27T20:09:57.621Z,7.20
2017-06-27T20:12:25.106Z,7.30
2017-06-27T20:14:53.712Z,19.70
2017-06-27T20:17:21.200Z,8.53
2017-06-27T20:19:48.684Z,6.23
2017-06-27T20:22:16.254Z,6.77
2017-06-27T20:24:44.585Z,6.83
2017-06-27T20:27:12.131Z,9.50
2017-06-27T20:29:40.734Z,5.57
2017-06-27T20:32:08.287Z,7.00
2017-06-27T20:34:35.831Z,7.63
2017-06-27T20:37:03.392Z,11.30
2017-06-27T20:39:31.614Z,8.30
2017-06-27T20:41:59.180Z,10.50
2017-06-27T20:44:26.721Z,6.63
2017-06-27T20:46:54.274Z,7.90
2017-06-27T20:49:21.746Z,6.07
2017-06-27T20:51:49.308Z,6.60
2017-06-27T20:54:16.787Z,6.87
2017-06-27T20:56:45.107Z,8.47
2017-06-27T20:59:12.590Z,14.97
2017-06-27T21:04:42.153Z,10.23
2017-06-27T21:07:10.472Z,10.53
2017-06-27T21:09:38.111Z,7.07
2017-06-27T21:12:05.595Z,7.13
2017-06-27T21:14:33.267Z,6.77
2017-06-27T21:17:00.771Z,7.37
2017-06-27T21:19:29.078Z,5.90
2017-06-27T21:21:56.549Z,8.47
2017-06-27T21:24:24.110Z,7.70
2017-06-27T21:26:51.660Z,6.43
2017-06-27T21:29:19.174Z,6.67
2017-06-27T21:31:47.413Z,10.80
2017-06-27T21:34:14.893Z,8.90
2017-06-27T21:36:42.365Z,11.43
2017-06-27T21:39:10.645Z,7.20
2017-06-27T21:41:38.895Z,9.43
2017-06-27T21:44:06.392Z,14.00
2017-06-27T21:46:33.886Z,8.77
2017-06-27T21:49:01.386Z,11.13
2017-06-27T21:51:29.647Z,12.53
2017-06-27T21:53:57.138Z,14.13
2017-06-27T21:56:24.627Z,9.60
2017-06-27T21:58:52.149Z,9.03
2017-06-27T22:01:20.410Z,13.43
2017-06-27T22:03:47.887Z,8.63
2017-06-27T22:06:16.155Z,9.83
2017-06-27T22:08:44.389Z,7.40
2017-06-27T22:11:11.901Z,7.80
2017-06-27T22:13:40.136Z,8.40
2017-06-27T22:16:07.620Z,10.87
2017-06-27T22:18:35.879Z,7.80
2017-06-27T22:21:03.361Z,7.00
2017-06-27T22:23:31.627Z,7.03
2017-06-27T22:25:59.895Z,7.10
2017-06-27T22:28:27.397Z,7.20
2017-06-27T22:30:54.868Z,9.30
2017-06-27T22:33:22.375Z,6.50
2017-06-27T22:35:50.627Z,7.97
2017-06-27T22:38:18.155Z,7.50
2017-06-27T22:40:45.652Z,8.97
2017-06-27T22:43:13.141Z,6.30
2017-06-27T22:45:41.402Z,8.33
2017-06-27T22:48:09.655Z,7.47
2017-06-27T22:50:37.157Z,7.40
2017-06-27T22:53:04.631Z,6.50
2017-06-27T22:55:32.125Z,7.53
2017-06-27T22:57:59.650Z,7.50
2017-06-27T23:00:27.152Z,13.90
2017-06-27T23:02:54.638Z,8.17
2017-06-27T23:05:22.911Z,7.87
2017-06-27T23:07:51.154Z,7.67
2017-06-27T23:10:18.637Z,6.70
2017-06-27T23:12:46.882Z,8.33
2017-06-27T23:15:14.392Z,7.47
2017-06-27T23:17:41.864Z,8.43
2017-06-27T23:20:09.354Z,10.90
2017-06-27T23:22:36.845Z,8.30
2017-06-27T23:25:05.106Z,10.20
2017-06-27T23:27:32.595Z,7.00
2017-06-27T23:30:00.824Z,7.40
2017-06-27T23:32:28.310Z,7.17
2017-06-27T23:34:56.563Z,11.43
2017-06-27T23:37:24.041Z,6.13
2017-06-27T23:39:52.279Z,7.63
2017-06-27T23:42:19.777Z,8.00
2017-06-27T23:44:48.026Z,11.27
2017-06-27T23:47:15.528Z,8.23
2017-06-27T23:49:43.031Z,13.70
2017-06-27T23:52:10.529Z,8.20
2017-06-27T23:54:38.789Z,11.50
2017-06-27T23:57:06.277Z,16.70
2017-06-27T23:59:34.538Z,37.57
